Frisco, Texas
Current Conditions -  °F | °C
As of 7:57 PM on Monday 22 Dec 2014 (Local Time) from KADS Reporting Station
Overcast Overcast  
Wind Chill: 55°   Ceiling: 25000
Heat Index: 55°   Visibility: 13mi
Dew Point: 45°   Wind: 0mph
Humidity: 67%   Direction: NA
Pressure: 29.68"   Gusts: NA
Location:  33.15°N, 96.82°W
Report Text: KADS 230157Z 00000KT 13SM OVC250 13/07 A2968
Loading
Personal Weather Stations






























Interactive Weather Map New forecast layout! Learn more

10-Day Weather Forecast

Advertisements
Track Severe Weather on mobile